createdAt,value
2017-01-09T00:00:33.535Z,53.26
2017-01-09T00:01:42.512Z,53.45
2017-01-09T00:02:51.481Z,53.55
2017-01-09T00:04:00.471Z,53.45
2017-01-09T00:05:09.455Z,53.55
2017-01-09T00:06:18.421Z,52.87
2017-01-09T00:07:27.400Z,53.07
2017-01-09T00:08:36.389Z,52.69
2017-01-09T00:09:45.349Z,52.87
2017-01-09T00:10:54.320Z,52.59
2017-01-09T00:12:03.299Z,52.66
2017-01-09T00:13:12.275Z,52.4
2017-01-09T00:14:21.259Z,52.69
2017-01-09T00:15:30.234Z,52.97
2017-01-09T00:16:39.217Z,53.14
2017-01-09T00:17:48.187Z,52.66
2017-01-09T00:18:57.174Z,52.75
2017-01-09T00:20:06.144Z,53.04
2017-01-09T00:21:15.133Z,53.42
2017-01-09T00:22:24.105Z,53.33
2017-01-09T00:23:33.073Z,53.33
2017-01-09T00:24:42.139Z,53.71
2017-01-09T00:25:51.123Z,53.52
2017-01-09T00:27:00.123Z,53.71
2017-01-09T00:28:09.095Z,53.81
2017-01-09T00:29:18.065Z,53.71
2017-01-09T00:30:27.046Z,53.71
2017-01-09T00:31:36.011Z,53.59
2017-01-09T00:32:44.988Z,53.81
2017-01-09T00:33:53.975Z,53.4
2017-01-09T00:35:02.943Z,53.59
2017-01-09T00:36:11.917Z,53.78
2017-01-09T00:37:20.884Z,54.07
2017-01-09T00:38:29.854Z,53.97
2017-01-09T00:39:38.836Z,53.97
2017-01-09T00:40:47.818Z,54.07
2017-01-09T00:41:56.793Z,53.88
2017-01-09T00:43:05.762Z,53.78
2017-01-09T00:44:14.744Z,53.69
2017-01-09T00:45:23.717Z,53.2
2017-01-09T00:46:32.692Z,53.4
2017-01-09T00:47:41.675Z,53.3
2017-01-09T00:48:50.640Z,53.88
2017-01-09T00:49:59.616Z,53.59
2017-01-09T00:51:08.608Z,53.69
2017-01-09T00:52:17.587Z,53.88
2017-01-09T00:53:26.573Z,54.61
2017-01-09T00:54:35.538Z,54.8
2017-01-09T00:55:44.507Z,54.9
2017-01-09T00:56:53.472Z,54.71
2017-01-09T00:58:02.449Z,54.71
2017-01-09T00:59:11.434Z,54.64
2017-01-09T01:00:20.411Z,53.88
2017-01-09T01:01:29.387Z,53.97
2017-01-09T01:02:38.375Z,54.45
2017-01-09T01:03:47.361Z,54.04
2017-01-09T01:04:56.323Z,54.14
2017-01-09T01:06:05.300Z,54.26
2017-01-09T01:07:14.313Z,54.45
2017-01-09T01:08:23.322Z,54.71
2017-01-09T01:09:32.297Z,55
2017-01-09T01:10:41.274Z,54.9
2017-01-09T01:11:50.242Z,54.8
2017-01-09T01:12:59.207Z,54.8
2017-01-09T01:14:08.207Z,55.29
2017-01-09T01:15:17.203Z,55
2017-01-09T01:16:26.165Z,54.52
2017-01-09T01:17:35.133Z,54.9
2017-01-09T01:18:44.117Z,54.71
2017-01-09T01:19:53.091Z,54.9
2017-01-09T01:21:02.079Z,55.29
2017-01-09T01:22:11.066Z,55.19
2017-01-09T01:23:20.025Z,55.19
2017-01-09T01:24:28.996Z,55.1
2017-01-09T01:25:37.965Z,55.54
2017-01-09T01:26:46.937Z,55.54
2017-01-09T01:27:55.921Z,55.54
2017-01-09T01:29:04.899Z,54.88
2017-01-09T01:30:13.879Z,54.8
2017-01-09T01:31:22.860Z,55.1
2017-01-09T01:32:31.866Z,55.26
2017-01-09T01:33:40.892Z,55.74
2017-01-09T01:34:49.877Z,55.45
2017-01-09T01:35:58.854Z,55.07
2017-01-09T01:37:07.829Z,55.74
2017-01-09T01:38:16.810Z,56.02
2017-01-09T01:39:25.774Z,55.93
2017-01-09T01:40:34.747Z,55.35
2017-01-09T01:41:43.729Z,55.93
2017-01-09T01:42:52.706Z,55.16
2017-01-09T01:44:01.679Z,54.97
2017-01-09T01:45:10.643Z,55.16
2017-01-09T01:46:19.632Z,55.26
2017-01-09T01:47:28.599Z,55.35
2017-01-09T01:48:37.582Z,55.74
2017-01-09T01:49:46.551Z,55.93
2017-01-09T01:50:55.519Z,55.74
2017-01-09T01:52:04.491Z,55.93
2017-01-09T01:53:13.480Z,55.74
2017-01-09T01:54:22.461Z,55.64
2017-01-09T01:55:31.424Z,56.12
2017-01-09T01:56:40.394Z,55.64
2017-01-09T01:57:49.377Z,55.74
2017-01-09T01:58:58.365Z,55.74
2017-01-09T02:00:07.339Z,55.64
2017-01-09T02:01:16.304Z,55.74
2017-01-09T02:02:25.282Z,55.54
2017-01-09T02:03:34.252Z,56.12
2017-01-09T02:04:43.231Z,55.93
2017-01-09T02:05:52.203Z,56.02
2017-01-09T02:07:01.192Z,55.74
2017-01-09T02:08:10.182Z,56.02
2017-01-09T02:09:19.144Z,56.09
2017-01-09T02:10:28.131Z,56.31
2017-01-09T02:11:37.095Z,56.31
2017-01-09T02:12:46.077Z,55.93
2017-01-09T02:13:55.064Z,56.09
2017-01-09T02:15:04.047Z,56.09
2017-01-09T02:16:13.015Z,56.02
2017-01-09T02:17:22.029Z,55.99
2017-01-09T02:18:30.997Z,55.99
2017-01-09T02:19:39.969Z,56.4
2017-01-09T02:20:48.955Z,56.12
2017-01-09T02:21:57.933Z,56.09
2017-01-09T02:23:06.905Z,56.18
2017-01-09T02:24:15.875Z,56.18
2017-01-09T02:25:24.844Z,56.85
2017-01-09T02:26:33.821Z,56.47
2017-01-09T02:27:42.805Z,56.38
2017-01-09T02:28:51.785Z,56.57
2017-01-09T02:30:00.744Z,56.85
2017-01-09T02:31:09.714Z,56.85
2017-01-09T02:32:18.692Z,56.85
2017-01-09T02:33:27.675Z,56.57
2017-01-09T02:34:36.655Z,56.57
2017-01-09T02:35:45.630Z,56.38
2017-01-09T02:36:54.589Z,56.47
2017-01-09T02:38:03.550Z,56.57
2017-01-09T02:39:12.522Z,56.09
2017-01-09T02:40:21.490Z,55.9
2017-01-09T02:41:30.462Z,56.09
2017-01-09T02:42:39.434Z,56.18
2017-01-09T02:43:48.434Z,56.09
2017-01-09T02:44:57.398Z,56.38
2017-01-09T02:46:06.377Z,56.47
2017-01-09T02:47:15.346Z,56.28
2017-01-09T02:48:24.331Z,56.47
2017-01-09T02:49:33.310Z,56.85
2017-01-09T02:50:42.270Z,56.28
2017-01-09T02:51:51.243Z,56.85
2017-01-09T02:53:00.235Z,56.57
2017-01-09T02:54:09.195Z,56.47
2017-01-09T02:55:18.169Z,56.45
2017-01-09T02:56:27.155Z,56.57
2017-01-09T02:57:36.128Z,57.04
2017-01-09T02:58:45.090Z,56.95
2017-01-09T02:59:54.077Z,56.76
2017-01-09T03:01:03.052Z,57.33
2017-01-09T03:02:12.067Z,56.85
2017-01-09T03:03:21.032Z,56.85
2017-01-09T03:04:30.006Z,56.92
2017-01-09T03:05:38.966Z,56.92
2017-01-09T03:06:47.934Z,56.92
2017-01-09T03:07:56.994Z,57.02
2017-01-09T03:09:05.965Z,57.4
2017-01-09T03:10:14.941Z,57.31
2017-01-09T03:11:23.909Z,56.73
2017-01-09T03:12:32.887Z,56.82
2017-01-09T03:13:41.892Z,57.5
2017-01-09T03:14:50.860Z,57.31
2017-01-09T03:15:59.831Z,57.02
2017-01-09T03:17:08.836Z,57.4
2017-01-09T03:18:17.814Z,57.5
2017-01-09T03:19:26.776Z,57.59
2017-01-09T03:20:35.761Z,57.11
2017-01-09T03:21:44.744Z,57.4
2017-01-09T03:22:53.707Z,57.4
2017-01-09T03:24:02.686Z,57.59
2017-01-09T03:25:11.655Z,57.87
2017-01-09T03:26:20.627Z,57.31
2017-01-09T03:27:29.603Z,58.36
2017-01-09T03:28:38.580Z,58.16
2017-01-09T03:29:47.552Z,57.65
2017-01-09T03:30:56.534Z,58.36
2017-01-09T03:32:05.497Z,57.85
2017-01-09T03:33:14.470Z,57.5
2017-01-09T03:34:23.496Z,57.5
2017-01-09T03:35:32.494Z,57.18
2017-01-09T03:36:41.477Z,57.21
2017-01-09T03:37:50.442Z,57.5
2017-01-09T03:38:59.419Z,57.02
2017-01-09T03:40:08.386Z,57.5
2017-01-09T03:41:17.351Z,57.02
2017-01-09T03:42:26.339Z,57.59
2017-01-09T03:43:35.315Z,57.4
2017-01-09T03:44:44.288Z,56.82
2017-01-09T03:45:53.260Z,57.5
2017-01-09T03:47:02.286Z,57.5
2017-01-09T03:48:11.295Z,57.11
2017-01-09T03:49:20.267Z,57.4
2017-01-09T03:50:29.245Z,57.5
2017-01-09T03:51:38.213Z,57.4
2017-01-09T03:52:47.192Z,57.4
2017-01-09T03:53:56.160Z,57.11
2017-01-09T03:55:05.138Z,57.31
2017-01-09T03:56:14.106Z,57.21
2017-01-09T03:57:23.091Z,57.4
2017-01-09T03:58:32.072Z,57.31
2017-01-09T03:59:41.082Z,57.5
2017-01-09T04:00:50.055Z,57.4
2017-01-09T04:01:59.038Z,57.5
2017-01-09T04:03:08.005Z,57.5
2017-01-09T04:04:16.986Z,57.68
2017-01-09T04:05:25.970Z,57.4
2017-01-09T04:06:34.940Z,57.56
2017-01-09T04:07:43.919Z,57.4
2017-01-09T04:08:52.879Z,57.21
2017-01-09T04:10:01.845Z,57.21
2017-01-09T04:11:10.830Z,57.09
2017-01-09T04:12:19.804Z,57.68
2017-01-09T04:13:28.765Z,57.4
2017-01-09T04:14:37.732Z,57.37
2017-01-09T04:15:46.707Z,57.94
2017-01-09T04:16:55.665Z,57.56
2017-01-09T04:18:04.645Z,57.65
2017-01-09T04:19:13.629Z,57.94
2017-01-09T04:20:22.586Z,58.51
2017-01-09T04:21:31.558Z,58.61
2017-01-09T04:22:40.534Z,58.23
2017-01-09T04:23:49.508Z,57.75
2017-01-09T04:24:58.480Z,58.33
2017-01-09T04:26:07.862Z,58.33
2017-01-09T04:27:16.827Z,58.14
2017-01-09T04:28:25.789Z,58.14
2017-01-09T04:29:34.767Z,57.75
2017-01-09T04:30:43.743Z,57.65
2017-01-09T04:31:52.715Z,57.46
2017-01-09T04:33:01.685Z,58.14
2017-01-09T04:34:10.657Z,57.37
2017-01-09T04:35:19.621Z,57.56
2017-01-09T04:36:28.601Z,57.65
2017-01-09T04:37:37.564Z,58.14
2017-01-09T04:38:46.559Z,58.04
2017-01-09T04:39:55.774Z,57.56
2017-01-09T04:41:04.746Z,58.14
2017-01-09T04:42:13.706Z,57.75
2017-01-09T04:43:22.674Z,57.94
2017-01-09T04:44:31.637Z,58.42
2017-01-09T04:45:40.614Z,58.33
2017-01-09T04:46:49.607Z,57.56
2017-01-09T04:47:58.577Z,57.85
2017-01-09T04:49:07.548Z,57.75
2017-01-09T04:50:16.535Z,57.85
2017-01-09T04:51:25.493Z,57.56
2017-01-09T04:52:34.475Z,58.23
2017-01-09T04:53:43.439Z,58.14
2017-01-09T04:54:52.404Z,58.61
2017-01-09T04:56:01.381Z,58.42
2017-01-09T04:57:10.354Z,58.51
2017-01-09T04:58:19.342Z,57.94
2017-01-09T04:59:28.312Z,58.51
2017-01-09T05:00:37.289Z,58.51
2017-01-09T05:01:46.256Z,58.33
2017-01-09T05:02:55.232Z,58.7
2017-01-09T05:04:04.196Z,58.42
2017-01-09T05:05:13.175Z,58.42
2017-01-09T05:06:22.142Z,58.51
2017-01-09T05:07:31.123Z,58.14
2017-01-09T05:08:40.099Z,58.51
2017-01-09T05:09:49.060Z,58.23
2017-01-09T05:10:58.038Z,58.14
2017-01-09T05:12:07.021Z,58.14
2017-01-09T05:13:15.990Z,58.42
2017-01-09T05:14:24.963Z,57.85
2017-01-09T05:15:33.928Z,58.42
2017-01-09T05:16:42.905Z,58.33
2017-01-09T05:17:51.875Z,58.33
2017-01-09T05:19:00.855Z,58.42
2017-01-09T05:20:09.826Z,58.42
2017-01-09T05:21:18.850Z,58.42
2017-01-09T05:22:27.811Z,58.51
2017-01-09T05:23:36.770Z,58.61
2017-01-09T05:24:45.748Z,58.61
2017-01-09T05:25:54.728Z,58.61
2017-01-09T05:27:03.706Z,58.51
2017-01-09T05:28:12.708Z,58.42
2017-01-09T05:29:21.673Z,58.14
2017-01-09T05:30:30.655Z,58.33
2017-01-09T05:31:39.626Z,58.33
2017-01-09T05:32:48.603Z,58.51
2017-01-09T05:33:57.572Z,58.23
2017-01-09T05:35:06.538Z,58.33
2017-01-09T05:36:15.515Z,58.33
2017-01-09T05:37:24.963Z,58.33
2017-01-09T05:38:34.254Z,58.2
2017-01-09T05:39:43.213Z,58.42
2017-01-09T05:40:52.614Z,58.33
2017-01-09T05:42:01.605Z,58.58
2017-01-09T05:43:10.754Z,58.33
2017-01-09T05:44:19.735Z,58.33
2017-01-09T05:45:28.717Z,58.61
2017-01-09T05:46:37.785Z,58.14
2017-01-09T05:47:47.632Z,58.42
2017-01-09T05:48:56.632Z,58.51
2017-01-09T05:50:05.608Z,58.42
2017-01-09T05:51:14.587Z,58.61
2017-01-09T05:52:23.552Z,58.23
2017-01-09T05:53:32.529Z,58.51
2017-01-09T05:54:41.494Z,58.42
2017-01-09T05:55:50.476Z,58.42
2017-01-09T05:56:59.452Z,58.33
2017-01-09T05:58:08.427Z,58.23
2017-01-09T05:59:17.421Z,58.51
2017-01-09T06:00:26.383Z,58.51
2017-01-09T06:01:35.368Z,58.23
2017-01-09T06:02:44.350Z,58.51
2017-01-09T06:03:53.311Z,58.2
2017-01-09T06:05:02.285Z,58.42
2017-01-09T06:06:11.255Z,58.51
2017-01-09T06:07:20.227Z,58.42
2017-01-09T06:08:29.207Z,58.51
2017-01-09T06:09:38.191Z,58.61
2017-01-09T06:10:47.151Z,58.48
2017-01-09T06:11:56.126Z,58.33
2017-01-09T06:13:05.097Z,58.04
2017-01-09T06:14:14.073Z,58.68
2017-01-09T06:15:23.050Z,59.16
2017-01-09T06:16:32.018Z,62.05
2017-01-09T06:17:41.002Z,63.32
2017-01-09T06:18:49.970Z,66.85
2017-01-09T06:19:58.944Z,68.8
2017-01-09T06:21:07.917Z,69.5
2017-01-09T06:22:16.888Z,69.12
2017-01-09T06:23:25.862Z,65.58
2017-01-09T06:24:34.835Z,63.96
2017-01-09T06:25:43.823Z,65.39
2017-01-09T06:26:52.796Z,66.16
2017-01-09T06:28:01.773Z,67.59
2017-01-09T06:29:10.758Z,68.2
2017-01-09T06:30:19.737Z,68.2
2017-01-09T06:31:28.706Z,68.87
2017-01-09T06:32:37.679Z,69.73
2017-01-09T06:33:46.657Z,68.96
2017-01-09T06:34:55.626Z,70.3
2017-01-09T06:36:04.602Z,71.16
2017-01-09T06:37:13.569Z,71.3
2017-01-09T06:38:22.550Z,71.48
2017-01-09T06:39:31.519Z,71.2
2017-01-09T06:40:40.506Z,71.48
2017-01-09T06:41:49.486Z,71.87
2017-01-09T06:42:58.471Z,71.77
2017-01-09T06:44:07.433Z,71.68
2017-01-09T06:45:16.405Z,72.06
2017-01-09T06:46:25.375Z,71.11
2017-01-09T06:47:34.357Z,72.48
2017-01-09T06:48:43.339Z,72
2017-01-09T06:49:52.307Z,72.77
2017-01-09T06:51:01.290Z,72.48
2017-01-09T06:52:10.257Z,73.34
2017-01-09T06:53:19.226Z,73.24
2017-01-09T06:54:28.200Z,73.47
2017-01-09T06:55:37.172Z,73.44
2017-01-09T06:56:46.143Z,73.28
2017-01-09T06:57:55.119Z,73.19
2017-01-09T06:59:04.107Z,73.19
2017-01-09T07:00:13.116Z,73.38
2017-01-09T07:01:22.080Z,73.09
2017-01-09T07:02:31.074Z,72.99
2017-01-09T07:03:40.042Z,73.47
2017-01-09T07:04:49.016Z,73.38
2017-01-09T07:05:57.974Z,73.47
2017-01-09T07:07:06.949Z,73.66
2017-01-09T07:08:15.924Z,73.47
2017-01-09T07:09:24.909Z,72.94
2017-01-09T07:10:33.879Z,73.66
2017-01-09T07:11:42.861Z,73.47
2017-01-09T07:12:51.831Z,73.13
2017-01-09T07:14:00.794Z,73.32
2017-01-09T07:15:09.781Z,73.9
2017-01-09T07:16:18.761Z,73.51
2017-01-09T07:17:27.739Z,73.61
2017-01-09T07:18:36.752Z,74.08
2017-01-09T07:19:45.740Z,74.47
2017-01-09T07:20:55.113Z,75.71
2017-01-09T07:22:04.087Z,74.66
2017-01-09T07:23:13.126Z,73.32
2017-01-09T07:24:22.508Z,73.22
2017-01-09T07:25:31.484Z,74.57
2017-01-09T07:26:40.485Z,73.7
2017-01-09T07:27:49.470Z,73.7
2017-01-09T07:28:58.471Z,71.98
2017-01-09T07:30:07.901Z,71.4
2017-01-09T07:31:19.667Z,71.21
2017-01-09T07:32:29.396Z,71.78
2017-01-09T07:33:40.352Z,72.55
2017-01-09T07:34:49.329Z,71.78
2017-01-09T07:35:58.313Z,71.88
2017-01-09T07:37:08.296Z,71.53
2017-01-09T07:38:17.275Z,71.31
2017-01-09T07:39:26.247Z,72.49
2017-01-09T07:40:35.252Z,72.2
2017-01-09T07:41:44.292Z,72.11
2017-01-09T07:42:53.358Z,71.92
2017-01-09T07:44:02.340Z,71.15
2017-01-09T07:45:11.315Z,71.25
2017-01-09T07:46:20.301Z,71.34
2017-01-09T07:47:29.272Z,71.05
2017-01-09T07:48:38.250Z,71.25
2017-01-09T07:49:47.223Z,71.44
2017-01-09T07:50:56.189Z,71.05
2017-01-09T07:52:05.169Z,71.34
2017-01-09T07:53:14.172Z,73.65
2017-01-09T07:54:23.186Z,73.74
2017-01-09T07:55:32.172Z,72.78
2017-01-09T07:56:45.003Z,72.59
2017-01-09T07:57:54.399Z,73.45
2017-01-09T07:59:03.383Z,71.63
2017-01-09T08:00:12.381Z,71.05
2017-01-09T08:01:21.559Z,71.66
2017-01-09T08:02:31.761Z,71.37
2017-01-09T08:03:40.752Z,70.64
2017-01-09T08:04:49.726Z,70.26
2017-01-09T08:05:58.733Z,69.53
2017-01-09T08:07:07.707Z,70.01
2017-01-09T08:08:16.677Z,69.81
2017-01-09T08:09:25.657Z,69.81
2017-01-09T08:10:34.635Z,69.46
2017-01-09T08:11:45.114Z,69.08
2017-01-09T08:12:54.099Z,68.89
2017-01-09T08:14:03.070Z,68.63
2017-01-09T08:15:12.051Z,68.54
2017-01-09T08:16:21.134Z,68.54
2017-01-09T08:17:31.865Z,68.63
2017-01-09T08:18:41.630Z,68.09
2017-01-09T08:19:51.969Z,67.9
2017-01-09T08:21:00.962Z,67.74
2017-01-09T08:22:09.995Z,66.49
2017-01-09T08:23:18.983Z,67.35
2017-01-09T08:24:27.983Z,66.88
2017-01-09T08:25:36.971Z,67.26
2017-01-09T08:26:45.938Z,68.29
2017-01-09T08:27:54.924Z,69.63
2017-01-09T08:29:03.906Z,69.4
2017-01-09T08:30:12.940Z,69.98
2017-01-09T08:31:21.930Z,70.43
2017-01-09T08:32:30.894Z,70.52
2017-01-09T08:33:39.881Z,70.52
2017-01-09T08:34:48.854Z,70.62
2017-01-09T08:35:57.879Z,69.66
2017-01-09T08:37:06.848Z,66.2
2017-01-09T08:38:15.828Z,63.22
2017-01-09T08:39:24.810Z,61.11
2017-01-09T08:40:33.799Z,60.11
2017-01-09T08:41:42.790Z,59.83
2017-01-09T08:42:51.763Z,59.25
2017-01-09T08:44:00.777Z,59.92
2017-01-09T08:45:09.757Z,59.41
2017-01-09T08:46:18.736Z,58.07
2017-01-09T08:47:27.742Z,57.11
2017-01-09T08:48:36.719Z,56.79
2017-01-09T08:49:45.707Z,56.98
2017-01-09T08:50:54.677Z,56.31
2017-01-09T08:52:03.650Z,56.41
2017-01-09T08:53:12.626Z,55.83
2017-01-09T08:54:21.690Z,55.74
2017-01-09T08:55:30.661Z,55.93
2017-01-09T08:56:39.663Z,55.74
2017-01-09T08:57:48.633Z,55.8
2017-01-09T08:58:57.599Z,55.52
2017-01-09T09:00:06.585Z,55.42
2017-01-09T09:01:15.574Z,54.94
2017-01-09T09:02:24.556Z,55.33
2017-01-09T09:03:33.523Z,55.04
2017-01-09T09:04:42.489Z,55.13
2017-01-09T09:05:51.474Z,55.97
2017-01-09T09:07:00.455Z,55.04
2017-01-09T09:08:09.429Z,55.04
2017-01-09T09:09:18.432Z,55.4
2017-01-09T09:10:27.410Z,55.21
2017-01-09T09:11:36.395Z,55.3
2017-01-09T09:12:45.377Z,55.21
2017-01-09T09:13:54.363Z,55.3
2017-01-09T09:15:03.331Z,55.21
2017-01-09T09:16:12.310Z,55.21
2017-01-09T09:17:21.294Z,55.97
2017-01-09T09:18:30.277Z,55.68
2017-01-09T09:19:39.263Z,55.49
2017-01-09T09:20:48.236Z,56.71
2017-01-09T09:21:57.208Z,57.19
2017-01-09T09:23:06.184Z,56.42
2017-01-09T09:24:15.163Z,56.13
2017-01-09T09:25:24.141Z,56.04
2017-01-09T09:26:33.116Z,55.27
2017-01-09T09:27:42.076Z,55.18
2017-01-09T09:28:51.053Z,55.94
2017-01-09T09:30:00.032Z,55.94
2017-01-09T09:31:08.995Z,55.65
2017-01-09T09:32:18.021Z,55.34
2017-01-09T09:33:26.988Z,54.99
2017-01-09T09:34:35.959Z,54.79
2017-01-09T09:35:44.936Z,54.89
2017-01-09T09:36:53.919Z,54.99
2017-01-09T09:38:02.888Z,55.34
2017-01-09T09:39:11.868Z,56.2
2017-01-09T09:40:20.837Z,56.2
2017-01-09T09:41:29.804Z,56.3
2017-01-09T09:42:38.795Z,56.3
2017-01-09T09:43:47.764Z,55.73
2017-01-09T09:44:56.727Z,55.82
2017-01-09T09:46:05.710Z,55.73
2017-01-09T09:47:14.684Z,56.01
2017-01-09T09:48:23.650Z,56.3
2017-01-09T09:49:32.626Z,56.2
2017-01-09T09:50:41.613Z,55.79
2017-01-09T09:51:50.573Z,56.27
2017-01-09T09:52:59.555Z,55.69
2017-01-09T09:54:08.538Z,55.88
2017-01-09T09:55:17.523Z,55.6
2017-01-09T09:56:26.505Z,55.69
2017-01-09T09:57:35.514Z,56.94
2017-01-09T09:58:44.484Z,56.17
2017-01-09T09:59:53.457Z,55.41
2017-01-09T10:01:02.421Z,55.6
2017-01-09T10:02:11.393Z,56.08
2017-01-09T10:03:20.379Z,56.56
2017-01-09T10:04:29.367Z,56.17
2017-01-09T10:05:38.329Z,55.79
2017-01-09T10:06:47.309Z,55.79
2017-01-09T10:07:56.285Z,55.79
2017-01-09T10:09:05.265Z,55.79
2017-01-09T10:10:14.238Z,55.88
2017-01-09T10:11:23.208Z,55.69
2017-01-09T10:12:32.187Z,55.79
2017-01-09T10:13:41.151Z,55.76
2017-01-09T10:14:50.540Z,55.86
2017-01-09T10:15:59.514Z,55.88
2017-01-09T10:17:08.492Z,56.53
2017-01-09T10:18:17.465Z,56.84
2017-01-09T10:19:26.444Z,61.15
2017-01-09T10:20:35.422Z,61.69
2017-01-09T10:21:44.394Z,61.37
2017-01-09T10:22:53.376Z,60.7
2017-01-09T10:24:02.355Z,60.05
2017-01-09T10:25:11.341Z,60.47
2017-01-09T10:26:20.308Z,60.6
2017-01-09T10:27:29.290Z,61.27
2017-01-09T10:28:38.264Z,61.49
2017-01-09T10:29:47.239Z,61.68
2017-01-09T10:30:56.205Z,62.16
2017-01-09T10:32:05.196Z,62.55
2017-01-09T10:33:14.589Z,63.51
2017-01-09T10:34:23.568Z,64.5
2017-01-09T10:35:32.543Z,64.89
2017-01-09T10:36:41.514Z,65.27
2017-01-09T10:37:50.492Z,66.17
2017-01-09T10:38:59.471Z,65.88
2017-01-09T10:40:08.463Z,66.17
2017-01-09T10:41:17.427Z,66.07
2017-01-09T10:42:26.399Z,65.88
2017-01-09T10:43:35.600Z,66.71
2017-01-09T10:44:44.575Z,66.71
2017-01-09T10:45:53.564Z,67.77
2017-01-09T10:47:02.553Z,68.51
2017-01-09T10:48:11.530Z,68.6
2017-01-09T10:49:20.631Z,68.21
2017-01-09T10:50:29.624Z,67.74
2017-01-09T10:51:38.699Z,68.51
2017-01-09T10:52:47.709Z,68.7
2017-01-09T10:53:56.675Z,68.21
2017-01-09T10:55:05.646Z,68.12
2017-01-09T10:56:14.630Z,68.51
2017-01-09T10:57:23.613Z,67.83
2017-01-09T10:58:32.583Z,67.77
2017-01-09T10:59:41.554Z,67.77
2017-01-09T11:00:50.519Z,67.29
2017-01-09T11:01:59.494Z,67.29
2017-01-09T11:03:08.466Z,67.58
2017-01-09T11:04:17.461Z,67.29
2017-01-09T11:05:26.424Z,67.35
2017-01-09T11:06:35.394Z,67.38
2017-01-09T11:07:44.375Z,67.48
2017-01-09T11:08:53.346Z,67.48
2017-01-09T11:10:02.358Z,67.48
2017-01-09T11:11:11.362Z,67.48
2017-01-09T11:12:20.336Z,67.29
2017-01-09T11:13:29.307Z,67.38
2017-01-09T11:14:38.281Z,67.29
2017-01-09T11:15:47.284Z,66.91
2017-01-09T11:16:56.268Z,67.29
2017-01-09T11:18:05.245Z,67
2017-01-09T11:19:14.213Z,66.81
2017-01-09T11:20:23.193Z,66.91
2017-01-09T11:21:32.173Z,66.71
2017-01-09T11:22:41.150Z,66.71
2017-01-09T11:23:50.127Z,66.52
2017-01-09T11:24:59.105Z,66.81
2017-01-09T11:26:08.085Z,66.61
2017-01-09T11:27:17.490Z,67
2017-01-09T11:28:26.465Z,67
2017-01-09T11:29:35.444Z,66.42
2017-01-09T11:30:44.418Z,66.81
2017-01-09T11:31:53.400Z,66.71
2017-01-09T11:33:02.381Z,66.42
2017-01-09T11:34:11.366Z,67
2017-01-09T11:35:20.357Z,67
2017-01-09T11:36:29.348Z,67
2017-01-09T11:37:38.329Z,66.94
2017-01-09T11:38:47.313Z,67.03
2017-01-09T11:39:56.319Z,66.91
2017-01-09T11:41:05.306Z,66.74
2017-01-09T11:42:14.272Z,66.84
2017-01-09T11:43:23.255Z,66.94
2017-01-09T11:44:32.231Z,67.13
2017-01-09T11:45:41.216Z,67.1
2017-01-09T11:46:50.195Z,67.13
2017-01-09T11:47:59.176Z,66.74
2017-01-09T11:49:08.141Z,66.65
2017-01-09T11:50:17.109Z,66.74
2017-01-09T11:51:26.652Z,67.61
2017-01-09T11:52:36.127Z,67.32
2017-01-09T11:53:45.113Z,67.42
2017-01-09T11:54:54.086Z,67.42
2017-01-09T11:56:03.050Z,67.03
2017-01-09T11:57:12.043Z,66.74
2017-01-09T11:58:21.023Z,67.42
2017-01-09T11:59:30.000Z,67.32
2017-01-09T12:00:38.975Z,67.71
2017-01-09T12:01:47.947Z,68.09
2017-01-09T12:02:56.926Z,67.42
2017-01-09T12:04:05.900Z,67.99
2017-01-09T12:05:14.894Z,67.99
2017-01-09T12:06:24.739Z,67.8
2017-01-09T12:07:34.124Z,67.61
2017-01-09T12:08:43.543Z,67.71
2017-01-09T12:09:52.519Z,67.61
2017-01-09T12:11:01.496Z,67.35
2017-01-09T12:12:10.471Z,68.48
2017-01-09T12:13:19.447Z,68.41
2017-01-09T12:14:28.420Z,68.22
2017-01-09T12:15:37.406Z,68.99
2017-01-09T12:16:46.377Z,68.8
2017-01-09T12:17:55.348Z,71.59
2017-01-09T12:19:04.337Z,70.34
2017-01-09T12:20:13.309Z,69.47
2017-01-09T12:21:23.773Z,69.85
2017-01-09T12:22:32.765Z,69.38
2017-01-09T12:23:41.734Z,69.47
2017-01-09T12:24:50.715Z,69.57
2017-01-09T12:25:59.693Z,69.57
2017-01-09T12:27:08.673Z,70.15
2017-01-09T12:28:17.647Z,69.47
2017-01-09T12:29:26.657Z,69.85
2017-01-09T12:30:35.655Z,69.85
2017-01-09T12:31:44.645Z,70.05
2017-01-09T12:32:53.620Z,69.95
2017-01-09T12:34:02.608Z,70.05
2017-01-09T12:35:11.583Z,69.95
2017-01-09T12:36:20.587Z,69.95
2017-01-09T12:37:29.580Z,70.53
2017-01-09T12:38:38.551Z,69.76
2017-01-09T12:39:47.555Z,69.95
2017-01-09T12:40:57.657Z,70.05
2017-01-09T12:42:06.804Z,69.95
2017-01-09T12:43:15.966Z,69.76
2017-01-09T12:44:24.939Z,69.95
2017-01-09T12:45:33.915Z,70.09
2017-01-09T12:46:42.898Z,70.09
2017-01-09T12:47:51.890Z,69.99
2017-01-09T12:49:00.896Z,70.09
2017-01-09T12:50:09.896Z,70.18
2017-01-09T12:51:18.873Z,69.51
2017-01-09T12:52:27.847Z,69.99
2017-01-09T12:53:36.845Z,70.09
2017-01-09T12:54:45.833Z,69.22
2017-01-09T12:55:54.803Z,69.31
2017-01-09T12:57:03.771Z,69.31
2017-01-09T12:58:12.753Z,68.54
2017-01-09T12:59:21.785Z,68.35
2017-01-09T13:00:30.778Z,68.64
2017-01-09T13:01:39.760Z,69.41
2017-01-09T13:02:48.782Z,69.6
2017-01-09T13:03:57.789Z,69.31
2017-01-09T13:05:06.777Z,69.79
2017-01-09T13:06:15.829Z,69.79
2017-01-09T13:07:24.818Z,70.09
2017-01-09T13:08:33.804Z,69.31
2017-01-09T13:09:42.810Z,69.51
2017-01-09T13:10:51.807Z,70.09
2017-01-09T13:12:00.793Z,69.89
2017-01-09T13:13:09.774Z,69.99
2017-01-09T13:14:18.770Z,69.89
2017-01-09T13:15:27.754Z,70.18
2017-01-09T13:16:36.737Z,70.12
2017-01-09T13:17:45.720Z,69.51
2017-01-09T13:18:54.698Z,69.99
2017-01-09T13:20:03.677Z,69.6
2017-01-09T13:21:12.659Z,69.99
2017-01-09T13:22:21.643Z,69.99
2017-01-09T13:23:30.619Z,69.89
2017-01-09T13:24:39.674Z,70.66
2017-01-09T13:25:48.652Z,70.28
2017-01-09T13:26:57.637Z,69.99
2017-01-09T13:28:06.624Z,69.54
2017-01-09T13:29:15.602Z,70.28
2017-01-09T13:30:24.577Z,69.83
2017-01-09T13:31:33.562Z,70.18
2017-01-09T13:32:42.526Z,70.66
2017-01-09T13:33:51.510Z,70.02
2017-01-09T13:35:00.481Z,69.89
2017-01-09T13:36:09.463Z,69.99
2017-01-09T13:37:18.470Z,69.99
2017-01-09T13:38:27.452Z,69.45
2017-01-09T13:39:36.432Z,69.7
2017-01-09T13:40:45.407Z,69.64
2017-01-09T13:41:54.390Z,69.6
2017-01-09T13:43:03.378Z,69.51
2017-01-09T13:44:12.349Z,69.45
2017-01-09T13:45:21.345Z,69.54
2017-01-09T13:46:30.322Z,69.64
2017-01-09T13:47:39.310Z,69.83
2017-01-09T13:48:48.294Z,69.64
2017-01-09T13:49:57.270Z,69.79
2017-01-09T13:51:06.244Z,69.45
2017-01-09T13:52:15.233Z,69.15
2017-01-09T13:53:24.205Z,69.64
2017-01-09T13:54:33.173Z,69.06
2017-01-09T13:55:42.156Z,69.15
2017-01-09T13:56:51.128Z,69.73
2017-01-09T13:58:00.103Z,69.06
2017-01-09T13:59:09.090Z,69.54
2017-01-09T14:00:18.061Z,69.45
2017-01-09T14:01:27.036Z,69.25
2017-01-09T14:02:36.010Z,68.68
2017-01-09T14:03:44.989Z,69.45
2017-01-09T14:04:53.970Z,69.15
2017-01-09T14:06:02.961Z,69.64
2017-01-09T14:07:11.936Z,69.45
2017-01-09T14:08:20.920Z,69.45
2017-01-09T14:09:29.909Z,69.64
2017-01-09T14:10:38.888Z,69.54
2017-01-09T14:11:47.986Z,69.54
2017-01-09T14:12:57.005Z,69.45
2017-01-09T14:14:06.473Z,69.45
2017-01-09T14:15:17.740Z,69.45
2017-01-09T14:16:26.757Z,69.45
2017-01-09T14:17:35.759Z,69.25
2017-01-09T14:18:44.727Z,69.64
2017-01-09T14:19:53.715Z,69.83
2017-01-09T14:21:02.679Z,70.7
2017-01-09T14:22:11.655Z,69.73
2017-01-09T14:23:20.640Z,70.02
2017-01-09T14:24:30.048Z,69.73
2017-01-09T14:25:39.043Z,69.64
2017-01-09T14:26:48.027Z,69.45
2017-01-09T14:27:57.004Z,68.96
2017-01-09T14:29:05.990Z,68.77
2017-01-09T14:30:14.968Z,69.73
2017-01-09T14:31:23.957Z,69.35
2017-01-09T14:32:32.940Z,69.06
2017-01-09T14:33:41.933Z,69.64
2017-01-09T14:34:50.898Z,69.64
2017-01-09T14:35:59.868Z,69.25
2017-01-09T14:37:08.856Z,69.54
2017-01-09T14:38:17.837Z,69.25
2017-01-09T14:39:26.806Z,69.15
2017-01-09T14:40:35.788Z,69.35
2017-01-09T14:41:44.760Z,69.35
2017-01-09T14:42:53.739Z,69.25
2017-01-09T14:44:02.728Z,68.87
2017-01-09T14:45:11.733Z,69.25
2017-01-09T14:46:20.697Z,69.64
2017-01-09T14:47:29.678Z,69.87
2017-01-09T14:48:38.656Z,69.45
2017-01-09T14:49:47.737Z,69.83
2017-01-09T14:50:56.716Z,69.57
2017-01-09T14:52:06.116Z,70.31
2017-01-09T14:53:15.088Z,70.06